Time;durP1;ratioP1;P1;durP2;ratioP2;P2;SDS_P1;SDS_P2;PMS_P1;PMS_P2;Temp;Humidity;BMP_temperature;BMP_pressure;BME280_temperature;BME280_humidity;BME280_pressure;Samples;Min_cycle;Max_cycle;Signal;HPM_P1;HPM_P2
2020/12/26 00:01:43;;;;;;;33.55;14.65;;;3.60;77.80;;;;;;4823704;29;20037;-92
2020/12/26 00:19:40;;;;;;;28.30;13.93;;;3.60;77.90;;;;;;4822385;29;20499;-93
2020/12/26 01:11:44;;;;;;;;;;;;;;;;;;;;;
2020/12/26 01:15:04;;;;;;;;;;;;;;;;;;;;;
2020/12/26 01:22:08;;;;;;;;;;;;;;;;;;;;;
2020/12/26 01:25:29;;;;;;;30.67;14.75;;;3.70;78.60;;;;;;6205400;23;20016;-91
2020/12/26 01:29:17;;;;;;;;;;;;;;;;;;;;;
2020/12/26 01:36:08;;;;;;;;;;;;;;;;;;;;;
2020/12/26 01:39:48;;;;;;;;;;;;;;;;;;;;;
2020/12/26 01:50:44;;;;;;;;;;;;;;;;;;;;;
2020/12/26 02:11:01;;;;;;;;;;;3.80;78.90;;;;;;6171913;23;20028;-93
2020/12/26 02:31:15;;;;;;;;;;;;;;;;;;;;;
2020/12/26 02:38:44;;;;;;;;;;;;;;;;;;;;;
2020/12/26 02:56:22;;;;;;;;;;;;;;;;;;;;;
2020/12/26 02:59:22;;;;;;;27.75;13.88;;;3.80;79.10;;;;;;6113103;23;20073;-93
2020/12/26 03:03:00;;;;;;;;;;;;;;;;;;;;;
2020/12/26 05:43:24;;;;;;;31.42;15.27;;;4.10;82.20;;;;;;6274761;22;20007;-91
2020/12/26 06:33:34;;;;;;;;;;;;;;;;;;;;;
2020/12/26 06:39:24;;;;;;;28.02;13.38;;;4.30;83.10;;;;;;6349630;22;20049;-88
2020/12/26 06:42:18;;;;;;;29.08;13.27;;;4.30;83.40;;;;;;6333009;22;20015;-89
2020/12/26 06:44:46;;;;;;;23.77;11.75;;;4.10;84.10;;;;;;6347882;22;20022;-89
2020/12/26 06:47:36;;;;;;;25.38;11.98;;;4.10;84.40;;;;;;6345327;22;20016;-87
2020/12/26 06:50:18;;;;;;;22.20;12.27;;;4.10;85.00;;;;;;6352507;22;20397;-88
2020/12/26 06:52:44;;;;;;;22.02;11.90;;;4.10;85.30;;;;;;6351169;22;20414;-91
2020/12/26 06:55:40;;;;;;;25.40;11.18;;;4.00;85.50;;;;;;6350720;22;20014;-87
2020/12/26 07:00:35;;;;;;;26.60;9.73;;;3.80;86.90;;;;;;5135979;27;20343;-85
2020/12/26 07:03:28;;;;;;;18.80;7.95;;;4.60;95.20;;;;;;5112070;28;20047;-86
2020/12/26 07:05:56;;;;;;;13.25;6.25;;;5.10;94.70;;;;;;5115856;28;20043;-88
2020/12/26 07:08:22;;;;;;;16.25;5.93;;;5.50;93.70;;;;;;5123701;28;20039;-84
2020/12/26 07:10:49;;;;;;;11.45;5.43;;;5.80;92.50;;;;;;5132480;28;20070;-84
2020/12/26 07:13:49;;;;;;;11.18;5.82;;;6.10;91.40;;;;;;5132535;28;20043;-82
2020/12/26 07:16:46;;;;;;;16.35;5.40;;;7.10;95.20;;;;;;5131196;28;20031;-86
2020/12/26 07:19:25;;;;;;;13.40;5.05;;;8.40;94.70;;;;;;5138770;28;20035;-86
2020/12/26 07:22:01;;;;;;;10.02;4.65;;;9.30;92.70;;;;;;5142360;28;20073;-89
2020/12/26 07:24:40;;;;;;;14.77;4.45;;;10.00;91.60;;;;;;5136951;28;20035;-87
2020/12/26 07:27:25;;;;;;;15.68;4.75;;;10.50;90.60;;;;;;5098231;28;20027;-85
2020/12/26 07:30:09;;;;;;;16.25;5.03;;;11.00;90.20;;;;;;5135644;28;20077;-92
2020/12/26 07:32:35;;;;;;;14.18;4.22;;;11.30;89.60;;;;;;5118935;28;20122;-88
2020/12/26 07:35:05;;;;;;;13.63;3.60;;;11.70;88.60;;;;;;5133922;28;20525;-85
2020/12/26 07:37:32;;;;;;;24.60;4.60;;;11.90;88.30;;;;;;5095909;28;20050;-83
2020/12/26 07:39:58;;;;;;;18.02;3.70;;;12.10;87.30;;;;;;5134508;28;20042;-86
2020/12/26 07:42:25;;;;;;;25.02;4.72;;;12.30;86.70;;;;;;5131602;28;20043;-85
2020/12/26 07:44:51;;;;;;;22.98;4.43;;;12.50;86.40;;;;;;5119152;28;20470;-91
2020/12/26 07:47:17;;;;;;;30.50;4.57;;;12.70;85.90;;;;;;5135692;28;20435;-90
2020/12/26 07:49:59;;;;;;;27.60;3.75;;;12.80;85.50;;;;;;5117316;28;20078;-86
2020/12/26 07:52:25;;;;;;;19.23;3.80;;;13.00;84.80;;;;;;5140324;28;20038;-87
2020/12/26 07:54:58;;;;;;;19.95;4.03;;;13.20;84.60;;;;;;5140769;28;20084;-91
2020/12/26 07:57:25;;;;;;;29.38;5.93;;;13.20;84.00;;;;;;5101025;28;20077;-90
2020/12/26 07:59:51;;;;;;;29.73;6.43;;;13.40;83.40;;;;;;5100455;28;20059;-88
2020/12/26 08:02:17;;;;;;;27.40;5.70;;;13.50;83.00;;;;;;5121065;28;20039;-89
2020/12/26 08:04:44;;;;;;;29.15;6.65;;;13.60;83.00;;;;;;5134393;28;20522;-87
2020/12/26 08:07:14;;;;;;;28.80;5.85;;;13.70;83.20;;;;;;5141558;28;20035;-88
2020/12/26 08:09:54;;;;;;;30.35;6.47;;;13.80;83.30;;;;;;5117905;28;20457;-86
2020/12/26 08:12:21;;;;;;;24.83;5.07;;;13.90;83.30;;;;;;5126270;28;20032;-86
2020/12/26 08:14:57;;;;;;;23.38;4.82;;;13.90;83.10;;;;;;5130186;28;20444;-90
2020/12/26 08:17:25;;;;;;;21.77;3.92;;;14.10;81.40;;;;;;5132512;28;20027;-90
2020/12/26 08:20:01;;;;;;;16.75;3.95;;;14.20;79.40;;;;;;5133435;28;20066;-86
2020/12/26 08:22:27;;;;;;;21.67;4.40;;;14.20;77.40;;;;;;5126972;28;20066;-89
2020/12/26 08:25:07;;;;;;;14.82;4.07;;;14.40;76.40;;;;;;5109376;28;20044;-86
2020/12/26 15:49:37;;;;;;;6.85;2.65;;;21.60;50.40;;;;;;5090626;27;20806;-79
2020/12/26 15:52:03;;;;;;;6.97;2.15;;;20.70;47.60;;;;;;5090231;28;20044;-82
2020/12/26 15:54:29;;;;;;;2.00;1.77;;;19.50;48.00;;;;;;5090084;28;20433;-80
2020/12/26 15:56:55;;;;;;;3.20;1.75;;;18.60;48.50;;;;;;5090350;28;20050;-80
2020/12/26 15:59:21;;;;;;;7.40;1.90;;;17.90;48.70;;;;;;5090146;28;20040;-83
2020/12/26 16:01:47;;;;;;;2.30;1.58;;;17.20;48.90;;;;;;5090279;28;20351;-80
2020/12/26 16:04:13;;;;;;;4.45;1.85;;;16.80;48.90;;;;;;5088399;28;20036;-80
2020/12/26 16:06:39;;;;;;;4.03;1.58;;;16.50;48.80;;;;;;5090218;28;20476;-81
2020/12/26 16:09:05;;;;;;;1.63;1.52;;;16.10;48.90;;;;;;5089649;28;20044;-85
2020/12/26 16:11:30;;;;;;;1.70;1.60;;;15.90;48.80;;;;;;5090502;28;20036;-80
2020/12/26 16:13:56;;;;;;;3.05;1.60;;;15.70;48.70;;;;;;5089559;28;20040;-81
2020/12/26 16:16:22;;;;;;;3.63;1.55;;;15.60;48.80;;;;;;5089652;28;20032;-83
2020/12/26 16:18:48;;;;;;;2.25;1.60;;;15.40;48.50;;;;;;5089656;28;20552;-82
2020/12/26 16:21:20;;;;;;;2.95;1.55;;;15.30;48.50;;;;;;5071135;28;20123;-83
2020/12/26 16:23:45;;;;;;;1.60;1.48;;;15.20;48.60;;;;;;5089554;28;20080;-82
2020/12/26 16:26:11;;;;;;;3.78;1.17;;;15.00;48.40;;;;;;5089693;28;20115;-81
2020/12/26 16:28:37;;;;;;;3.78;1.45;;;15.00;48.70;;;;;;5089397;28;20131;-81
2020/12/26 16:31:03;;;;;;;2.13;1.20;;;14.90;48.60;;;;;;5089411;28;20040;-79
2020/12/26 16:33:29;;;;;;;2.58;1.23;;;14.80;48.70;;;;;;5089360;28;20077;-77
2020/12/26 16:35:55;;;;;;;2.63;1.30;;;14.70;48.70;;;;;;5088232;28;20441;-78
2020/12/26 16:38:21;;;;;;;4.18;1.30;;;14.60;48.60;;;;;;5089307;28;20032;-79
2020/12/26 16:40:47;;;;;;;3.85;1.27;;;14.50;48.60;;;;;;5089060;28;20040;-79
2020/12/26 16:43:13;;;;;;;4.45;1.40;;;14.50;48.60;;;;;;5089172;28;20123;-78
2020/12/26 16:45:38;;;;;;;4.53;1.65;;;14.40;48.40;;;;;;5089470;28;20044;-79
2020/12/26 16:48:04;;;;;;;3.33;1.40;;;14.30;48.50;;;;;;5089697;28;20052;-79
2020/12/26 16:50:33;;;;;;;5.75;1.52;;;14.40;48.40;;;;;;5089382;28;20041;-79
2020/12/26 16:52:59;;;;;;;3.75;1.40;;;14.30;48.40;;;;;;5087826;28;20044;-81
2020/12/26 16:55:25;;;;;;;1.70;1.60;;;14.30;48.50;;;;;;5089852;28;20047;-80
2020/12/26 18:09:27;;;;;;;2.15;1.88;;;12.70;49.90;;;;;;5131088;27;20865;-84
2020/12/26 18:11:53;;;;;;;2.72;1.88;;;12.70;51.00;;;;;;5130835;27;20375;-84
2020/12/26 18:14:19;;;;;;;8.55;1.95;;;12.70;51.30;;;;;;5133856;27;20061;-79
2020/12/26 18:16:46;;;;;;;5.55;1.55;;;12.70;51.50;;;;;;5132450;28;20032;-80
2020/12/26 18:19:12;;;;;;;3.92;1.90;;;12.70;51.40;;;;;;5130854;28;20500;-79
2020/12/26 18:21:38;;;;;;;1.92;1.70;;;12.70;51.70;;;;;;5130531;27;20435;-81
2020/12/26 18:24:03;;;;;;;2.75;2.05;;;12.70;51.90;;;;;;5130855;28;20128;-78
2020/12/26 18:26:36;;;;;;;3.00;1.70;;;12.70;52.00;;;;;;5130531;28;20498;-78
2020/12/26 18:29:02;;;;;;;4.90;2.88;;;12.70;52.30;;;;;;5112331;28;20089;-79
2020/12/26 18:31:31;;;;;;;2.67;2.20;;;12.70;52.30;;;;;;5130684;28;20404;-79
2020/12/26 18:34:01;;;;;;;3.03;2.13;;;12.70;52.50;;;;;;5130790;27;20128;-81
2020/12/26 18:36:27;;;;;;;3.08;2.00;;;12.70;52.40;;;;;;5112103;28;20164;-79
2020/12/26 18:38:55;;;;;;;2.70;1.85;;;12.70;52.70;;;;;;5112479;28;20063;-79
2020/12/26 18:41:24;;;;;;;2.47;1.88;;;12.70;52.70;;;;;;5133452;28;20030;-79
2020/12/26 18:43:51;;;;;;;4.38;2.10;;;12.60;52.70;;;;;;5131025;28;20045;-79
2020/12/26 18:46:17;;;;;;;8.85;1.95;;;12.60;52.70;;;;;;5095070;28;20027;-81
2020/12/26 18:48:43;;;;;;;3.70;1.67;;;12.60;52.70;;;;;;5130204;28;20039;-81
2020/12/26 18:51:14;;;;;;;1.77;1.30;;;12.60;52.90;;;;;;5130127;28;20043;-78
2020/12/26 18:53:40;;;;;;;1.60;1.50;;;12.60;52.80;;;;;;5130376;28;20027;-79
2020/12/26 18:56:06;;;;;;;2.13;1.80;;;12.60;53.00;;;;;;5130162;27;20037;-78
2020/12/26 18:58:32;;;;;;;3.38;1.67;;;12.60;53.00;;;;;;5130110;28;20035;-81
2020/12/26 19:00:58;;;;;;;2.47;1.92;;;12.50;53.10;;;;;;5130093;28;20031;-82
2020/12/26 19:03:24;;;;;;;3.80;1.42;;;12.60;53.20;;;;;;5129785;28;20042;-80
2020/12/26 19:05:51;;;;;;;4.43;1.95;;;12.50;53.10;;;;;;5129946;27;20038;-78
2020/12/26 19:08:19;;;;;;;3.25;2.40;;;12.40;52.80;;;;;;5110984;28;20054;-80
2020/12/26 19:10:45;;;;;;;5.32;2.00;;;12.40;52.50;;;;;;5129828;28;20129;-81
2020/12/26 19:13:11;;;;;;;1.88;1.70;;;12.30;52.60;;;;;;5129828;28;20466;-83
2020/12/26 19:15:37;;;;;;;2.75;1.77;;;12.20;52.30;;;;;;5129876;28;20043;-82
2020/12/26 19:18:03;;;;;;;2.90;1.63;;;12.20;53.00;;;;;;5129762;28;20494;-80
2020/12/26 19:20:30;;;;;;;3.20;2.20;;;12.10;52.10;;;;;;5117741;28;20040;-80
2020/12/26 19:22:56;;;;;;;2.30;1.60;;;12.10;52.30;;;;;;5115779;28;20127;-79
2020/12/26 19:25:21;;;;;;;4.57;1.80;;;12.00;52.30;;;;;;5115732;28;20028;-80
2020/12/26 19:27:48;;;;;;;2.58;1.75;;;12.00;52.30;;;;;;5115650;28;20089;-80
2020/12/26 19:30:15;;;;;;;4.00;2.00;;;11.90;52.30;;;;;;5115929;28;20070;-80
2020/12/26 19:32:41;;;;;;;3.13;1.48;;;11.90;52.30;;;;;;5116254;28;20032;-81
2020/12/26 19:35:12;;;;;;;2.80;1.70;;;11.90;52.50;;;;;;5098749;28;20398;-80
2020/12/26 19:37:38;;;;;;;1.67;1.58;;;11.80;52.40;;;;;;5116179;28;20512;-80
2020/12/26 19:40:06;;;;;;;2.90;2.15;;;11.80;52.60;;;;;;5115750;28;20023;-83
2020/12/26 19:42:32;;;;;;;9.45;2.03;;;11.80;52.60;;;;;;5097443;28;20443;-85
2020/12/26 19:44:58;;;;;;;2.88;1.90;;;11.80;52.70;;;;;;5115370;28;20405;-78
2020/12/26 19:47:25;;;;;;;2.35;1.90;;;11.80;52.60;;;;;;5115450;28;20035;-78
2020/12/26 19:49:59;;;;;;;1.95;1.60;;;11.70;52.70;;;;;;5115634;28;20032;-77
2020/12/26 19:52:30;;;;;;;2.28;1.40;;;11.70;52.90;;;;;;5097908;28;20036;-79
2020/12/26 19:54:56;;;;;;;4.00;1.48;;;11.70;52.90;;;;;;5115739;28;20027;-79
2020/12/26 19:57:22;;;;;;;2.63;1.83;;;11.70;53.10;;;;;;5080347;28;20504;-78
2020/12/26 19:59:48;;;;;;;3.60;1.83;;;11.60;53.10;;;;;;5115096;28;20044;-80
2020/12/26 20:02:13;;;;;;;2.70;1.80;;;11.60;53.20;;;;;;5115463;28;20028;-77
2020/12/26 20:04:40;;;;;;;1.80;1.40;;;11.60;53.30;;;;;;5117375;28;20425;-78
2020/12/26 20:07:08;;;;;;;2.13;1.48;;;11.60;53.40;;;;;;5115230;28;20482;-81
2020/12/26 20:09:34;;;;;;;3.00;1.60;;;11.60;53.50;;;;;;5114921;28;20039;-83
2020/12/26 20:12:02;;;;;;;3.55;1.70;;;11.50;53.60;;;;;;5115079;28;20407;-84
2020/12/26 20:14:31;;;;;;;2.20;1.70;;;11.60;53.70;;;;;;5115453;28;20028;-87
2020/12/26 20:16:58;;;;;;;2.03;1.38;;;11.50;53.70;;;;;;5115599;28;20071;-83
2020/12/26 20:19:24;;;;;;;2.38;1.60;;;11.50;53.80;;;;;;5115316;28;20027;-83
2020/12/26 20:21:50;;;;;;;2.28;1.42;;;11.50;53.70;;;;;;5115303;28;20032;-83
2020/12/26 20:24:16;;;;;;;2.28;1.42;;;11.50;53.80;;;;;;5096608;28;20061;-82
2020/12/26 20:26:41;;;;;;;3.95;1.42;;;11.50;53.70;;;;;;5114669;28;20092;-85
2020/12/26 20:29:08;;;;;;;1.50;1.40;;;11.40;53.80;;;;;;5114672;28;20027;-83
2020/12/26 20:31:36;;;;;;;2.58;1.48;;;11.40;53.80;;;;;;5130708;27;20058;-90
2020/12/26 20:34:16;;;;;;;2.42;1.50;;;11.30;53.90;;;;;;5094662;28;20140;-87
2020/12/26 20:36:47;;;;;;;1.80;1.30;;;11.40;54.10;;;;;;5114967;28;20035;-87
2020/12/26 20:39:13;;;;;;;1.77;1.40;;;11.30;54.10;;;;;;5114619;28;20039;-84
2020/12/26 20:41:39;;;;;;;2.25;1.40;;;11.30;54.10;;;;;;5114162;28;20103;-84
2020/12/26 20:44:05;;;;;;;2.03;1.40;;;11.30;54.10;;;;;;5114545;28;20036;-81
2020/12/26 20:46:31;;;;;;;1.85;1.55;;;11.30;54.20;;;;;;5114214;28;20118;-85
2020/12/26 20:48:59;;;;;;;1.98;1.30;;;11.30;54.10;;;;;;5095416;28;20043;-90
2020/12/26 20:51:25;;;;;;;2.15;1.38;;;11.30;54.20;;;;;;5114356;28;20043;-90
2020/12/26 20:53:51;;;;;;;6.53;1.25;;;11.30;54.30;;;;;;5095975;28;20490;-88
2020/12/26 20:56:17;;;;;;;6.93;1.77;;;11.30;55.30;;;;;;5114689;28;20126;-89
2020/12/26 20:58:43;;;;;;;2.97;1.80;;;11.20;56.20;;;;;;5114387;28;20042;-90
2020/12/26 21:01:13;;;;;;;3.25;1.70;;;11.10;55.90;;;;;;5115460;28;20044;-91
2020/12/26 21:03:42;;;;;;;2.47;1.75;;;11.00;55.70;;;;;;5114431;28;20040;-89
2020/12/26 21:06:16;;;;;;;1.80;1.60;;;10.90;55.70;;;;;;5118035;28;20122;-90
2020/12/26 21:08:42;;;;;;;4.30;1.95;;;10.70;55.40;;;;;;5116265;28;20051;-88
2020/12/26 21:11:08;;;;;;;4.13;1.80;;;10.60;55.30;;;;;;5114050;28;20050;-90
2020/12/26 21:13:34;;;;;;;1.73;1.42;;;10.50;55.20;;;;;;5113891;28;20031;-82
2020/12/26 21:16:28;;;;;;;3.70;1.73;;;10.40;54.90;;;;;;5110788;27;20302;-86
2020/12/26 21:18:54;;;;;;;1.92;1.27;;;10.50;58.40;;;;;;5110627;28;20036;-85
2020/12/26 21:21:21;;;;;;;3.72;1.58;;;10.60;59.80;;;;;;5110823;28;20028;-89
2020/12/26 21:23:49;;;;;;;5.10;1.95;;;10.50;60.30;;;;;;5110599;28;20564;-89
2020/12/26 21:26:27;;;;;;;2.45;1.40;;;10.50;60.20;;;;;;5109364;28;20031;-88
2020/12/26 21:28:54;;;;;;;3.47;1.80;;;10.40;60.40;;;;;;5109360;28;20040;-92
2020/12/26 21:31:20;;;;;;;2.28;1.58;;;10.40;59.70;;;;;;5109163;28;20028;-91
2020/12/26 21:33:46;;;;;;;2.38;1.55;;;10.30;59.20;;;;;;5110854;28;20032;-89
2020/12/26 21:36:14;;;;;;;3.33;1.30;;;10.30;58.80;;;;;;5109800;28;20101;-92
2020/12/26 21:38:49;;;;;;;1.85;1.67;;;10.20;58.10;;;;;;5112064;28;20028;-90
2020/12/26 21:41:29;;;;;;;1.60;1.35;;;10.10;57.90;;;;;;5115233;28;20082;-90
2020/12/26 21:43:57;;;;;;;2.00;1.33;;;10.10;57.70;;;;;;5110488;28;20443;-93
2020/12/26 21:46:23;;;;;;;1.95;1.20;;;10.10;57.30;;;;;;5092524;28;20064;-84
2020/12/26 21:48:49;;;;;;;1.48;1.17;;;10.00;56.70;;;;;;5108617;28;20020;-85
2020/12/26 21:51:18;;;;;;;1.50;1.02;;;9.90;56.60;;;;;;5110131;28;20122;-86
2020/12/26 21:53:45;;;;;;;1.58;1.48;;;10.00;56.60;;;;;;5108604;28;20039;-85
2020/12/26 21:56:20;;;;;;;5.93;2.80;;;9.90;56.30;;;;;;5108171;28;20039;-83
2020/12/26 21:58:51;;;;;;;4.55;2.72;;;9.90;56.10;;;;;;5109739;28;20036;-82
2020/12/26 22:01:18;;;;;;;3.53;2.78;;;9.90;56.00;;;;;;5091691;28;20131;-80
2020/12/26 22:03:44;;;;;;;3.17;2.40;;;9.80;56.10;;;;;;5108799;28;20454;-81
2020/12/26 22:06:17;;;;;;;2.42;2.13;;;9.80;56.10;;;;;;5109419;28;20486;-81
2020/12/26 22:08:44;;;;;;;2.70;2.13;;;9.80;55.80;;;;;;5091103;28;20119;-81
2020/12/26 22:11:10;;;;;;;2.85;2.17;;;9.70;55.60;;;;;;5109777;28;20062;-82
2020/12/26 22:13:36;;;;;;;2.15;1.63;;;9.70;55.80;;;;;;5109659;28;20032;-82
2020/12/26 22:16:06;;;;;;;2.50;1.80;;;9.70;55.80;;;;;;5109216;28;20062;-81
2020/12/26 22:18:32;;;;;;;2.38;2.17;;;9.70;55.70;;;;;;5108303;28;20134;-80
2020/12/26 22:20:58;;;;;;;2.22;1.45;;;9.60;55.50;;;;;;5109416;28;20124;-81
2020/12/26 22:23:23;;;;;;;2.28;1.55;;;9.60;55.60;;;;;;5108610;28;20081;-81
2020/12/26 22:25:50;;;;;;;2.10;1.40;;;9.60;55.70;;;;;;5106033;28;20044;-83
2020/12/26 22:28:19;;;;;;;2.17;1.55;;;9.60;55.70;;;;;;5095242;28;20491;-80
2020/12/26 22:30:45;;;;;;;2.05;1.60;;;9.60;55.60;;;;;;5094141;28;20042;-80
2020/12/26 22:33:11;;;;;;;1.65;1.55;;;9.50;55.70;;;;;;5094200;28;20450;-80
2020/12/26 22:35:37;;;;;;;1.42;1.20;;;9.50;55.80;;;;;;5095254;28;20040;-80
2020/12/26 22:38:03;;;;;;;1.38;1.27;;;9.50;55.60;;;;;;5095603;28;20131;-81
2020/12/26 22:40:29;;;;;;;2.05;1.60;;;9.50;55.60;;;;;;5094410;28;20066;-81
2020/12/26 22:42:55;;;;;;;1.77;1.52;;;9.40;55.70;;;;;;5094363;28;20047;-81
2020/12/26 22:45:21;;;;;;;2.25;1.55;;;9.40;55.90;;;;;;5094154;28;20068;-80
2020/12/26 22:47:47;;;;;;;2.00;1.70;;;9.40;56.00;;;;;;5095365;28;20067;-80
2020/12/26 22:50:12;;;;;;;1.98;1.70;;;9.40;55.90;;;;;;5094989;28;20074;-80
2020/12/26 22:52:40;;;;;;;1.70;1.45;;;9.40;55.90;;;;;;5095758;28;20024;-81
2020/12/26 22:55:06;;;;;;;1.60;1.50;;;9.30;56.70;;;;;;5095125;28;20028;-80
2020/12/26 22:57:32;;;;;;;1.92;1.83;;;9.30;56.20;;;;;;5095182;28;20043;-80
2020/12/26 22:59:58;;;;;;;2.97;1.98;;;9.30;56.20;;;;;;5095208;28;20032;-80
2020/12/26 23:02:23;;;;;;;2.10;1.88;;;9.30;56.30;;;;;;5095441;28;20028;-79
2020/12/26 23:04:49;;;;;;;1.90;1.73;;;9.30;56.30;;;;;;5093676;28;20047;-80
2020/12/26 23:07:15;;;;;;;1.80;1.70;;;9.30;56.30;;;;;;5093798;28;20040;-79
2020/12/26 23:09:42;;;;;;;2.30;2.00;;;9.20;56.10;;;;;;5095886;28;20038;-79
2020/12/26 23:12:09;;;;;;;2.42;2.20;;;9.20;56.10;;;;;;5094736;28;20043;-79
2020/12/26 23:14:36;;;;;;;3.20;2.35;;;9.20;56.20;;;;;;5093088;28;20063;-80
2020/12/26 23:17:03;;;;;;;3.60;2.10;;;9.20;56.30;;;;;;5094816;28;20395;-80
2020/12/26 23:19:30;;;;;;;2.13;1.98;;;9.10;56.40;;;;;;5076740;28;20494;-79
2020/12/26 23:21:56;;;;;;;2.67;2.45;;;9.10;56.40;;;;;;5094688;28;20089;-79
2020/12/26 23:24:22;;;;;;;2.53;2.22;;;9.10;56.50;;;;;;5094612;28;20040;-79
2020/12/26 23:26:51;;;;;;;2.72;2.17;;;9.10;56.50;;;;;;5094645;28;20039;-80
2020/12/26 23:29:17;;;;;;;4.10;2.25;;;9.10;56.40;;;;;;5093328;28;20130;-80
2020/12/26 23:31:43;;;;;;;2.92;2.63;;;9.10;56.30;;;;;;5093234;28;20138;-81
2020/12/26 23:34:09;;;;;;;2.95;2.40;;;9.10;56.30;;;;;;5094632;28;20028;-80
2020/12/26 23:36:36;;;;;;;2.83;2.47;;;9.00;56.30;;;;;;5094716;28;20036;-83
2020/12/26 23:39:03;;;;;;;2.72;2.30;;;9.00;56.30;;;;;;5093313;28;20455;-83
2020/12/26 23:41:29;;;;;;;3.47;2.35;;;9.00;56.20;;;;;;5094629;28;20090;-83
2020/12/26 23:43:55;;;;;;;2.65;2.40;;;9.00;56.20;;;;;;5094586;28;20545;-83
2020/12/26 23:46:21;;;;;;;3.33;2.42;;;9.00;56.30;;;;;;5094225;28;20040;-83
2020/12/26 23:48:46;;;;;;;2.85;2.60;;;9.00;56.10;;;;;;5094210;28;20024;-82
2020/12/26 23:51:17;;;;;;;2.90;2.60;;;9.00;56.00;;;;;;5093663;28;20028;-84
2020/12/26 23:53:43;;;;;;;3.20;2.60;;;8.90;55.80;;;;;;5093084;28;20402;-86
2020/12/26 23:56:09;;;;;;;3.60;3.22;;;9.00;55.90;;;;;;5075109;28;20429;-85
2020/12/26 23:58:38;;;;;;;4.32;3.38;;;9.00;55.60;;;;;;5076193;28;20043;-86
